Impacts TAF Board
For situational awareness. Not to be used for flight planning purposes.
IDs:

KMGW - Morgantown Muni, WV, US

Issued at 1720 UTC 01 Feb 2023
Updated at 2218 UTC 01 Feb 2023
Potential Impact None Slight Moderate High
Time<<02/23Z 03/00Z 03/01Z 03/02Z 03/03Z 03/04Z 03/05Z 03/06Z 03/07Z 03/08Z 03/09Z 03/10Z 03/11Z
Type
VIS
CIG
Cover
FltCat
WX
WDir
WSpd
WGst
WSHgt
WSDir
WSSpd

NOTE: LAMP data beyond the time of the TAF data is denoted as LAMP in Type and colored magenta.

Raw TAF
KMGW 011720Z 0118/0218 28005KT P6SM SCT250
  FM020200 20005KT P6SM BKN250
  FM021400 23010KT P6SM SCT250


METAR Board
Radar Display
Forecast Discussion

For situational awareness. Not to be used for flight planning purposes.